createdAt,value
2019-01-30T00:03:15.821Z,0.70
2019-01-30T00:08:19.381Z,0.70
2019-01-30T00:13:28.735Z,0.60
2019-01-30T00:18:35.245Z,0.60
2019-01-30T00:23:38.683Z,0.60
2019-01-30T00:28:41.870Z,0.70
2019-01-30T00:33:45.458Z,0.90
2019-01-30T00:38:48.800Z,0.80
2019-01-30T00:43:52.002Z,0.90
2019-01-30T00:48:55.493Z,1.00
2019-01-30T00:54:01.566Z,1.00
2019-01-30T00:59:04.981Z,1.00
2019-01-30T01:04:08.330Z,0.90
2019-01-30T01:09:11.632Z,1.10
2019-01-30T01:14:15.117Z,1.00
2019-01-30T01:19:18.471Z,0.80
2019-01-30T01:24:21.862Z,0.90
2019-01-30T01:29:28.325Z,0.90
2019-01-30T01:34:31.738Z,0.90
2019-01-30T01:39:38.081Z,0.80
2019-01-30T01:44:41.390Z,0.80
2019-01-30T01:49:44.845Z,0.80
2019-01-30T01:54:48.096Z,0.80
2019-01-30T01:59:51.410Z,0.70
2019-01-30T02:04:57.268Z,0.70
2019-01-30T02:10:00.462Z,0.70
2019-01-30T02:15:05.937Z,0.90
2019-01-30T02:20:12.014Z,0.80
2019-01-30T02:25:15.499Z,0.90
2019-01-30T02:30:23.901Z,0.70
2019-01-30T02:35:27.269Z,0.80
2019-01-30T02:40:33.615Z,0.70
2019-01-30T02:45:40.306Z,0.80
2019-01-30T02:50:46.888Z,0.70
2019-01-30T02:55:59.366Z,0.70
2019-01-30T03:01:20.853Z,0.70
2019-01-30T03:06:31.404Z,0.70
2019-01-30T03:11:34.949Z,0.60
2019-01-30T03:16:38.464Z,0.70
2019-01-30T03:21:49.248Z,0.60
2019-01-30T03:26:55.072Z,0.70
2019-01-30T03:32:04.350Z,0.80
2019-01-30T03:37:10.853Z,0.80
2019-01-30T03:42:14.105Z,0.80
2019-01-30T03:47:20.268Z,0.70
2019-01-30T03:52:42.703Z,0.60
2019-01-30T03:57:46.221Z,0.60
2019-01-30T04:02:52.852Z,0.70
2019-01-30T04:07:56.291Z,0.40
2019-01-30T04:12:59.663Z,0.70
2019-01-30T04:18:02.970Z,0.60
2019-01-30T04:23:08.972Z,0.70
2019-01-30T04:28:12.354Z,0.80
2019-01-30T04:33:15.575Z,0.70
2019-01-30T04:38:18.776Z,0.80
2019-01-30T04:43:22.567Z,0.70
2019-01-30T04:48:25.908Z,0.70
2019-01-30T04:53:29.212Z,0.70
2019-01-30T04:58:32.541Z,0.70
2019-01-30T05:03:38.935Z,0.60
2019-01-30T05:08:48.236Z,0.70
2019-01-30T05:13:51.778Z,0.60
2019-01-30T05:18:58.075Z,0.50
2019-01-30T05:24:01.470Z,0.60
2019-01-30T05:29:06.181Z,0.80
2019-01-30T05:34:11.839Z,0.70
2019-01-30T05:39:15.212Z,0.80
2019-01-30T05:44:18.616Z,0.90
2019-01-30T05:49:22.183Z,0.90
2019-01-30T05:54:25.628Z,0.80
2019-01-30T05:59:31.889Z,0.70
2019-01-30T06:04:35.391Z,0.70
2019-01-30T06:09:38.902Z,0.60
2019-01-30T06:14:42.342Z,0.80
2019-01-30T06:19:45.683Z,0.80
2019-01-30T06:24:49.246Z,0.90
2019-01-30T06:29:52.864Z,0.80
2019-01-30T06:34:56.754Z,0.90
2019-01-30T06:40:00.200Z,1.00
2019-01-30T06:45:03.764Z,1.00
2019-01-30T06:50:12.023Z,1.00
2019-01-30T06:55:15.478Z,0.80
2019-01-30T07:00:23.420Z,0.70
2019-01-30T07:05:26.995Z,0.90
2019-01-30T07:10:30.346Z,0.90
2019-01-30T07:15:33.748Z,0.90
2019-01-30T07:20:40.145Z,0.90
2019-01-30T07:25:44.338Z,0.70
2019-01-30T07:30:47.952Z,0.80
2019-01-30T07:35:54.365Z,0.90
2019-01-30T07:40:57.693Z,1.00
2019-01-30T07:46:01.231Z,1.00
2019-01-30T07:51:04.771Z,0.90
2019-01-30T07:56:08.291Z,0.90
2019-01-30T08:01:14.391Z,1.10
2019-01-30T08:06:19.590Z,0.90
2019-01-30T08:11:23.065Z,0.60
2019-01-30T08:16:26.404Z,0.90
2019-01-30T08:21:29.966Z,1.10
2019-01-30T08:26:33.729Z,1.20
2019-01-30T08:31:39.240Z,1.30
2019-01-30T08:36:42.615Z,1.30
2019-01-30T08:41:45.965Z,1.30
2019-01-30T08:46:49.414Z,1.40
2019-01-30T08:51:52.857Z,1.40
2019-01-30T08:56:56.240Z,1.40
2019-01-30T09:02:00.865Z,1.50
2019-01-30T09:07:04.361Z,1.60
2019-01-30T09:12:07.976Z,1.70
2019-01-30T09:17:11.334Z,1.70
2019-01-30T09:22:14.907Z,1.80
2019-01-30T09:27:18.293Z,1.80
2019-01-30T09:32:26.339Z,1.70
2019-01-30T09:37:29.680Z,1.80
2019-01-30T09:42:33.266Z,1.80
2019-01-30T09:47:36.904Z,1.90
2019-01-30T09:52:40.284Z,1.90
2019-01-30T09:57:45.633Z,2.10
2019-01-30T10:02:48.905Z,2.10
2019-01-30T10:07:55.158Z,2.20
2019-01-30T10:12:57.882Z,2.20
2019-01-30T10:18:04.619Z,2.10
2019-01-30T10:23:07.800Z,2.30
2019-01-30T10:28:16.701Z,2.50
2019-01-30T10:33:16.611Z,2.80
2019-01-30T10:38:23.021Z,2.80
2019-01-30T10:43:29.271Z,2.90
2019-01-30T10:48:32.581Z,3.10
2019-01-30T10:53:36.130Z,2.90
2019-01-30T10:58:39.509Z,3.10
2019-01-30T11:03:42.964Z,3.20
2019-01-30T11:09:02.976Z,3.10
2019-01-30T11:14:06.620Z,3.10
2019-01-30T11:19:10.162Z,3.40
2019-01-30T11:24:19.616Z,3.60
2019-01-30T11:29:23.658Z,3.70
2019-01-30T11:34:26.991Z,3.90
2019-01-30T11:39:33.196Z,3.90
2019-01-30T11:44:36.610Z,3.80
2019-01-30T11:49:39.876Z,3.80
2019-01-30T11:54:43.016Z,3.80
2019-01-30T11:59:46.486Z,3.90
2019-01-30T12:04:52.380Z,3.80
2019-01-30T12:09:58.753Z,3.60
2019-01-30T12:15:02.134Z,3.60
2019-01-30T12:20:07.397Z,3.50
2019-01-30T12:25:12.207Z,3.60
2019-01-30T12:30:23.024Z,3.60
2019-01-30T12:35:26.285Z,3.60
2019-01-30T12:40:29.474Z,3.40
2019-01-30T12:45:33.541Z,3.50
2019-01-30T12:50:40.058Z,3.50
2019-01-30T12:55:43.573Z,3.50
2019-01-30T13:00:47.783Z,3.60
2019-01-30T13:05:51.038Z,3.70
2019-01-30T13:10:54.366Z,4.00
2019-01-30T13:15:57.657Z,4.10
2019-01-30T13:21:00.981Z,4.40
2019-01-30T13:26:04.829Z,4.60
2019-01-30T13:31:11.148Z,5.50
2019-01-30T13:36:14.493Z,6.10
2019-01-30T13:41:17.799Z,6.30
2019-01-30T13:46:21.340Z,6.60
2019-01-30T13:51:30.657Z,6.70
2019-01-30T13:56:34.069Z,6.10
2019-01-30T14:01:37.313Z,5.80
2019-01-30T14:06:40.795Z,5.60
2019-01-30T14:11:44.144Z,5.40
2019-01-30T14:16:47.458Z,5.20
2019-01-30T14:21:52.239Z,5.00
2019-01-30T14:26:58.652Z,4.80
2019-01-30T14:32:02.109Z,4.70
2019-01-30T14:37:08.284Z,4.60
2019-01-30T14:42:11.835Z,4.50
2019-01-30T14:47:15.344Z,4.40
2019-01-30T14:52:19.002Z,4.20
2019-01-30T14:57:25.467Z,4.00
2019-01-30T15:02:31.953Z,4.00
2019-01-30T15:07:35.280Z,3.80
2019-01-30T15:12:40.956Z,3.70
2019-01-30T15:17:44.541Z,3.50
2019-01-30T15:22:55.615Z,3.50
2019-01-30T15:28:01.998Z,3.40
2019-01-30T15:33:05.927Z,3.40
2019-01-30T15:38:13.843Z,3.30
2019-01-30T15:43:17.179Z,3.30
2019-01-30T15:48:20.406Z,3.20
2019-01-30T15:53:24.741Z,3.10
2019-01-30T15:58:28.152Z,3.10
2019-01-30T16:03:31.472Z,2.90
2019-01-30T16:08:34.888Z,2.90
2019-01-30T16:13:38.169Z,2.90
2019-01-30T16:18:44.331Z,2.80
2019-01-30T16:23:52.068Z,2.90
2019-01-30T16:28:55.754Z,2.90
2019-01-30T16:33:59.373Z,2.90
2019-01-30T16:39:04.639Z,2.80
2019-01-30T16:44:07.990Z,2.80
2019-01-30T16:49:11.408Z,2.80
2019-01-30T16:54:14.933Z,2.60
2019-01-30T16:59:18.200Z,2.70
2019-01-30T17:04:27.732Z,2.70
2019-01-30T17:09:32.539Z,2.50
2019-01-30T17:14:35.864Z,2.60
2019-01-30T17:19:39.136Z,2.60
2019-01-30T17:24:42.769Z,2.60
2019-01-30T17:29:46.229Z,2.50
2019-01-30T17:34:55.504Z,2.40
2019-01-30T17:39:58.994Z,2.60
2019-01-30T17:45:02.746Z,2.50
2019-01-30T17:50:06.785Z,2.50
2019-01-30T17:55:10.225Z,2.60
2019-01-30T18:00:37.116Z,2.40
2019-01-30T18:05:40.634Z,2.60
2019-01-30T18:10:44.089Z,2.50
2019-01-30T18:15:48.889Z,2.50
2019-01-30T18:20:52.303Z,2.40
2019-01-30T18:25:55.406Z,2.40
2019-01-30T18:31:00.667Z,2.40
2019-01-30T18:36:04.191Z,2.50
2019-01-30T18:41:09.581Z,2.40
2019-01-30T18:46:19.327Z,2.20
2019-01-30T18:51:22.713Z,2.00
2019-01-30T18:56:26.055Z,2.10
2019-01-30T19:01:32.145Z,1.90
2019-01-30T19:06:35.538Z,1.90
2019-01-30T19:11:40.461Z,1.90
2019-01-30T19:16:53.205Z,2.10
2019-01-30T19:22:01.353Z,2.10
2019-01-30T19:27:07.494Z,1.90
2019-01-30T19:32:11.009Z,2.00
2019-01-30T19:37:14.537Z,1.90
2019-01-30T19:42:17.935Z,2.20
2019-01-30T19:47:21.351Z,2.10
2019-01-30T19:52:24.831Z,2.10
2019-01-30T19:57:28.385Z,2.10
2019-01-30T20:02:31.611Z,2.20
2019-01-30T20:07:34.948Z,2.00
2019-01-30T20:12:41.282Z,1.90
2019-01-30T20:17:44.698Z,2.00
2019-01-30T20:22:50.774Z,2.20
2019-01-30T20:27:54.392Z,2.20
2019-01-30T20:32:57.897Z,2.10
2019-01-30T20:38:03.676Z,2.00
2019-01-30T20:43:07.125Z,2.10
2019-01-30T20:48:10.413Z,2.00
2019-01-30T20:53:13.672Z,2.20
2019-01-30T20:58:17.056Z,2.20
2019-01-30T21:03:20.350Z,2.10
2019-01-30T21:08:23.735Z,2.30
2019-01-30T21:13:30.118Z,2.20
2019-01-30T21:18:35.960Z,2.20
2019-01-30T21:23:42.110Z,2.20
2019-01-30T21:28:45.504Z,2.10
2019-01-30T21:33:49.647Z,2.10
2019-01-30T21:38:53.219Z,1.90
2019-01-30T21:43:56.838Z,2.10
2019-01-30T21:49:00.172Z,2.10
2019-01-30T21:54:06.681Z,2.30
2019-01-30T21:59:10.098Z,2.30
2019-01-30T22:04:13.297Z,2.10
2019-01-30T22:09:16.612Z,2.20
2019-01-30T22:14:20.003Z,2.10
2019-01-30T22:19:26.092Z,2.10
2019-01-30T22:24:29.464Z,2.30
2019-01-30T22:29:32.796Z,2.10
2019-01-30T22:34:36.039Z,2.20
2019-01-30T22:39:39.323Z,2.40
2019-01-30T22:44:42.811Z,2.30
2019-01-30T22:49:46.150Z,2.30
2019-01-30T22:54:49.197Z,2.30
2019-01-30T22:59:54.105Z,2.20
2019-01-30T23:05:27.180Z,2.20
2019-01-30T23:11:01.934Z,2.40
2019-01-30T23:16:51.853Z,2.40
2019-01-30T23:22:54.299Z,2.20
2019-01-30T23:27:58.049Z,2.20
2019-01-30T23:33:28.008Z,2.20
2019-01-30T23:39:20.649Z,2.30
2019-01-30T23:44:56.648Z,2.30
2019-01-30T23:50:33.243Z,2.30
2019-01-30T23:56:11.035Z,2.40
